15th European Championshionship

2018-07-16 to 2018-07-28, FAI Category 1 event

Task 4 - Overall

2018-07-24 Task 4

Race to Goal 74.6 km

Provisional

No Leg Dist. Id Radius Open Close Coordinates Altitude
1 0.0 km T01 1 m 12:30 15:00 Lat: 41.88038 Lon: -7.72032 1509 m
2 SS 1.6 km W28 12000 m 13:20 19:30 Lat: 41.95074 Lon: -7.80312 1266 m
3 27.8 km W39 10000 m 13:20 19:30 Lat: 41.68037 Lon: -7.35359 786 m
4 ES 71.1 km G07 3500 m 13:20 19:30 Lat: 41.49799 Lon: -6.98314 595 m
5 74.6 km G07 100 m 13:20 19:30 Lat: 41.49799 Lon: -6.98314 595 m
StartGate(s): 13:20

# Id Name Nat Glider Sponsor SS ES Time km/h Distance Dist.
Points
Lead.
Points
Time
Points
Total
1 1 Michael Sigel M SUI GIN Boomerang 11 Gin Gliders, JACK&JONES, Naviter 13:20:00 15:42:10 02:22:10 29.3 74.63 362.2 223.2 384.8 970
2 1295 Philipp Haag M GER Gin Boomerang 11 B.A.H Gruppe/ Maier Sports GmbH 13:20:00 15:41:19 02:21:19 29.5 74.63 362.2 207.3 395.3 965
3 291 Marco Busetta M ITA Ozone Enzo 3 Bullet speedbar, ilpistacchio.it, AeCI 13:20:00 15:40:36 02:20:36 29.7 74.63 362.2 184.9 407.6 955
3 16 Primoz Susa M SLO Ozone Enzo 2 camp-gabrje.com, naviter.com, High Adventure Switzerland 13:20:00 15:40:45 02:20:45 29.6 74.63 362.2 188.5 404.4 955
5 218 Jurij Vidic M SLO Ozone Enzo 3 Agring doo, Naviter, High Adventure Switzerland, Slovenian Paragliding Team, Air Vuisa 13:20:00 15:40:51 02:20:51 29.6 74.63 362.2 185.2 402.6 950
5 575 Michael Maurer M SUI GinGliders Boomerang11 GinGliders/ LaSportiva / cloud-7.ch / ONEDAY 13:20:00 15:40:53 02:20:53 29.6 74.63 362.2 185.3 402.0 950
7 316 Marco Littame M ITA Ozone Enzo 2 luca/lisa 13:20:00 15:40:47 02:20:47 29.6 74.63 362.2 182.1 403.8 948
8 22 Biagio Alberto Vitale M ITA Ozone Ozone EnZo 3 AeCI,AIRE Cornizzolo,Casarini,DMD,Corbelli Elettronica,Infopro 13:20:00 15:41:03 02:21:03 29.6 74.63 362.2 184.5 399.3 946
9 14 Christian Biasi M ITA OZONE Enzo 3 TRENTINO - MONTURA - AIRE TEAM - AECI 13:20:00 15:41:03 02:21:03 29.6 74.63 362.2 183.8 399.3 945
10 12 Julien Wirtz M FRA Ozone Enzo 3 Ozone, Certika 13:20:00 15:41:13 02:21:13 29.5 74.63 362.2 185.2 396.8 944
10 621 Nuno Virgilio M POR Ozone Enzo 3 Flymaster / paragliding.BSTOKED.net / ActionCoin / Flow paragliders 13:20:00 15:40:55 02:20:55 29.6 74.63 362.2 180.1 401.4 944
12 84 Clement Latour M FRA Ozone ENZO3 FFVL SUPAIR 13:20:00 15:41:04 02:21:04 29.6 74.63 362.2 181.0 399.0 942
13 3137 Alexey Bystritskiy M RUS Ozone Enzo 3 asa-fly.ru 13:20:00 15:41:12 02:21:12 29.5 74.63 362.2 181.6 397.0 941
14 34 Andreas Malecki M GER Ozone Enzo 3 MWZ 24, Flugschule Chiemsee, DHV, 13:20:00 15:41:01 02:21:01 29.6 74.63 362.2 177.9 399.8 940
14 17 Ulrich Prinz M GER Ozone Enzo 3 Ozone 13:20:00 15:41:28 02:21:28 29.5 74.63 362.2 184.9 393.3 940
16 1500 Ferdinand Vogel M GER Ozone Enzo 3 13:20:00 15:41:40 02:21:40 29.4 74.63 362.2 186.4 390.7 939
16 222 Federico Nevastro M ITA Gin Boomerang 11 AeCi-Paradelta Club Feltre 13:20:00 15:41:26 02:21:26 29.5 74.63 362.2 182.9 393.7 939
16 713 Antonio Tabanez Fonseca M POR Ozone Enzo 3 FPVL; AGROL S.A; C.M. Lousã 13:20:00 15:41:38 02:21:38 29.4 74.63 362.2 186.1 391.1 939
19 11 Xevi Bonet Dalmau M ESP Ozone Enzo 3 Ozone/Alamair/Naviter/Alfapilot 13:20:00 15:41:30 02:21:30 29.5 74.63 362.2 182.8 392.9 938
20 54 Jose Rebelo M POR Ozone Enzo 3 FPVL, Bstoked, CP Linhares da Beira 13:20:00 15:41:48 02:21:48 29.4 74.63 362.2 185.2 389.1 937
20 771 Dusan Oroz M SLO Ozone Enzo 3 High Adventure, Naviter, X-Dreamfly 13:20:00 15:41:45 02:21:45 29.4 74.63 362.2 184.8 389.7 937
20 13 Torsten Siegel M GER GIN GLIDERS Boomerang 11 GIN GLIDERS, pets Premium, Naviter 13:20:00 15:41:42 02:21:42 29.4 74.63 362.2 184.8 390.3 937
20 515 Tilen Ceglar M SLO Ozone Enzo 3 NAVITER | High Adventure CH | Factorystore.si 13:20:00 15:41:46 02:21:46 29.4 74.63 362.2 185.5 389.5 937
20 384 Andrew Williams M GBR Ozone Zeno ESCAPE XC 13:20:00 15:41:14 02:21:14 29.5 74.63 362.2 178.5 396.5 937
20 45 Adrian Hachen M SUI Gin Gliders Boomerang 11 GIN Gliders 13:20:00 15:41:42 02:21:42 29.4 74.63 362.2 184.9 390.3 937
20 44 David Ohlidal M CZE Gin boom LAA ČR,Axis 13:20:00 15:41:42 02:21:42 29.4 74.63 362.2 184.0 390.3 937
27 985 Thomas Brandlehner M AUT Ozone Enzo 3 www.axians.at 13:20:00 15:41:50 02:21:50 29.4 74.63 362.2 185.3 388.7 936
27 111 Seiko Fukuoka Naville F FRA Ozone Enzo 4 Addactis, Ozone,Airlinks, La sambuy, Certika,Compass,Oneday,Nana 13:20:00 15:41:44 02:21:44 29.4 74.63 362.2 183.8 389.9 936
29 10 Meryl Delferriere F FRA Ozone Enzo 3 Ressources parapente/xctracer/adrenagliss 13:20:00 15:42:02 02:22:02 29.4 74.63 362.2 183.4 386.3 932
30 83 Idris Birch M GBR Gin Boom 11 Gin Gliders 13:20:00 15:42:28 02:22:28 29.3 74.63 362.2 184.9 381.5 929
30 300 Christoph Eder M AUT Ozone Enzo 3 DFC-Wildkogelfalken/Eder Guido Installationen 13:20:00 15:42:12 02:22:12 29.3 74.63 362.2 182.6 384.4 929
30 1114 Rolf Dale M NOR Ozone Enzo 3 13:20:00 15:42:15 02:22:15 29.3 74.63 362.2 183.2 383.9 929
30 338 Stephan Morgenthaler M SUI Ozone Enzo 3 13:20:00 15:42:10 02:22:10 29.3 74.63 362.2 182.3 384.8 929
34 236 Andrey Eliseev M RUS Ozone Enzo 3 no 13:20:00 15:42:12 02:22:12 29.3 74.63 362.2 181.5 384.4 928
35 4 Honorin Hamard M FRA Ozone Enzo 3 Altitude Eyewear - Naviter - CG50 - Club des Archanges - Ozone - Ligue Normandie - Icaro - Soartd 13:20:00 15:42:30 02:22:30 29.3 74.63 362.2 183.3 381.2 927
35 20 Ronny Helgesen M NOR Ozone Enzo 3 Termikk&Rotor A/S 13:20:00 15:42:14 02:22:14 29.3 74.63 362.2 181.0 384.0 927
37 3 Joachim Oberhauser M ITA Ozone Enzo 3 Airecornizzolo-Superfly360-elektroww-Ruedlohg-Xdreamfly-publicolor 13:20:00 15:42:43 02:22:43 29.2 74.63 362.2 185.0 378.9 926
37 393 Theo Warden M GBR Ozone Enzo 3 Airways airsports,Cross Country Mag,Aerofix 13:20:00 15:42:39 02:22:39 29.2 74.63 362.2 184.0 379.6 926
39 69 Stanislav Mayer M CZE Gin Boomerang 11 GIN, Kernun, Certicon, SvazPG, HighPoint, Victorinox 13:20:00 15:42:14 02:22:14 29.3 74.63 362.2 179.2 384.0 925
39 102 Michele Boschi M ITA Ozone EnZo 3 Digifly - AireCornizzolo- AeCI 13:20:00 15:42:34 02:22:34 29.2 74.63 362.2 182.7 380.4 925
41 40 Pavel Iker M CZE Gin Boomerang 11 ZICO a.s.; LAA ČR; GIN ČR 13:20:00 15:43:14 02:23:14 29.1 74.63 362.2 187.7 373.8 924
42 248 Volodymyr Perevalov M UKR Ozone Enzo3 NearBirds 13:20:00 15:42:37 02:22:37 29.2 74.63 362.2 180.4 379.9 923
42 51 Sergi Claret Estupinya M ESP Boomerang 11 Kasana, Gin Gliders 13:20:00 15:42:49 02:22:49 29.2 74.63 362.2 183.0 377.9 923
42 251 Martin Long M GBR Ozone Zeno www.flysussex.com 13:20:00 15:42:34 02:22:34 29.2 74.63 362.2 179.9 380.4 923
45 1987 Krzysztof Schmidt M POL Ozone Zeno QNT Systemy Informatyczne 13:20:00 15:42:39 02:22:39 29.2 74.63 362.2 180.3 379.6 922
45 717 Jan Richard Hansen M NOR Ozone Enzo 3 Epizoom Multimedia Design 13:20:00 15:42:41 02:22:41 29.2 74.63 362.2 180.6 379.2 922
45 68 Petr Kostrhun M CZE Gin Boomerang 11 Atlantis-limousine-service.cz 13:20:00 15:42:36 02:22:36 29.2 74.63 362.2 180.1 380.1 922
48 741 Stepan Kechedzhi M UKR Ozone Enzo 3 13:20:00 15:42:46 02:22:46 29.2 74.63 362.2 180.8 378.4 921
49 31 Carlos Lopes M POR Ozone Zeno www.mineiro.com.pt 13:20:00 15:43:11 02:23:11 29.1 74.63 362.2 183.5 374.3 920
50 281 Gleb Sukhotskiy M RUS Ozone Enzo3 www.crimea-paragliding.com 13:20:00 15:42:59 02:22:59 29.2 74.63 362.2 180.2 376.2 919
51 234 Juho Komulainen M FIN Ozone Enzo 3 Flymigu 13:20:00 15:42:43 02:22:43 29.2 74.63 362.2 175.9 378.9 917
51 676 Dominik Breitinger M SUI Gin Boomerang 11 GIN-Gliders 13:20:00 15:42:54 02:22:54 29.2 74.63 362.2 178.2 377.0 917
51 5 Charles Cazaux M FRA Ozone Enzo 3 Airlinks Academy l Morzine l Ozone l Naviter l ONE Day 13:20:00 15:42:04 02:22:04 29.3 74.63 362.2 168.7 385.9 917
54 906 Aleksei Korobkov M RUS Ozone Enzo 3 Теплый Дом 13:20:00 15:42:34 02:22:34 29.2 74.63 362.2 173.6 380.4 916
54 1405 Mariusz Wisniowski M POL Ozone Enzo 3 13:20:00 15:43:17 02:23:17 29.1 74.63 362.2 180.6 373.3 916
56 453 Alexander Schalber M AUT Ozone Enzo 3 Flugschule Salzburg / Naviter 13:20:00 15:43:06 02:23:06 29.1 74.63 362.2 178.0 375.1 915
56 500 Jost Napret M SLO Ozone Enzo 3 NAVITER I High Adventure Switzerland 13:20:00 15:40:24 02:20:24 29.7 74.63 362.2 137.7 414.6 915
58 541 Michal Gierlach M POL Ozone Enzo 3 XC Spike, SPBW, Airvuisa 13:20:00 15:42:18 02:22:18 29.3 74.63 362.2 168.8 383.3 914
59 269 Vladimir Bacanin M SRB Flow XCracer VS Srbije, Air 037 Krusevac 13:20:00 15:43:58 02:23:58 29.0 74.63 362.2 183.1 367.0 912
60 63 Francisco Javier Reina M ESP Ozone Enzo 3 Ozone.alamair 13:20:00 15:42:26 02:22:26 29.3 74.63 362.2 163.7 381.9 908
60 273 Zeljko Ovuka M SRB Ozone Enzo 3 VS Srbije, Ares Beograd 13:20:00 15:42:57 02:22:57 29.2 74.63 362.2 169.2 376.5 908
62 24 Damir Habek M CRO Niviuk Icepeak 8 13:20:00 15:43:27 02:23:27 29.1 74.63 362.2 173.3 371.7 907
63 1212 Jesus Costa Sanchez M ESP Gin Boomerang 11 Kasana Gin - parapentedesnivel.com -Maditarranean paraglidin.com 13:20:00 15:44:19 02:24:19 28.9 74.63 362.2 178.8 363.9 905
64 998 Jacek Gorski M POL Ozone Zeno Alti-paralotnie 13:20:00 15:44:16 02:24:16 28.9 74.63 362.2 175.9 364.4 903
65 198 Yury Mishanin M RUS Ozone Enzo 3 Федерация спорта СЛА Рязанской области 13:20:00 15:42:12 02:22:12 29.3 74.63 362.2 153.5 384.4 900
65 47 Artem Lozovoy M RUS Ozone Enzo 3 Спортивная федерация спорта СЛА Ленинградской области 13:20:00 15:44:44 02:24:44 28.8 74.63 362.2 177.1 360.4 900
67 7 Luc Armant M FRA Ozone Enzo 3 ozone 13:20:00 15:45:09 02:25:09 28.7 74.63 362.2 177.2 357.0 896
68 161 Christian Amon M AUT Ozone Enzo 3 Mac Para-Kortell 13:20:00 15:42:13 02:22:13 29.3 74.63 362.2 148.9 384.2 895
69 282 Bojan Gabersek M SLO Ozone Enzo 3 AVTODELI GABERSEK, IBUS, ASKELA, COMPANI 13:20:00 15:46:56 02:26:56 28.4 74.63 362.2 185.3 343.4 891
70 311 Peter Vyparina M SVK Ozone Enzo GAZI statika, SPORTRYSY, Perfectfly, 13:20:00 15:46:12 02:26:12 28.5 74.63 362.2 179.0 348.8 890
71 42 Yael Margelisch F SUI Ozone Enzo 3 GDentanBySutech, Naviter, ONEDAY, Alp'sports thérapies 13:20:00 15:47:28 02:27:28 28.3 74.63 362.2 184.3 339.5 886
72 314 Kristian Andersson M NOR Ozone Zeno JK 13:20:00 15:46:46 02:26:46 28.4 74.63 362.2 176.9 344.6 884
72 1717 Umut Akturk M TUR Ozone Enzo 3 Turkish Aeronautical Association 13:20:00 15:47:43 02:27:43 28.2 74.63 362.2 184.4 337.8 884
74 512 Vitalii Umanskyi M UKR Ozone Enzo 3 13:20:00 15:47:38 02:27:38 28.2 74.63 362.2 182.0 338.4 883
75 353 Aron Michiels M BEL Ozone Enzo 3 FreeToFly 13:20:00 15:47:23 02:27:23 28.3 74.63 362.2 179.8 340.1 882
76 211 Stefan Vyparina M SVK Ozone Enzo 3 Gaži statika, Perfectfly, SPORTRYSY, LAA SR 13:20:00 15:46:42 02:26:42 28.4 74.63 362.2 172.5 345.1 880
77 249 Emil Cervenan M SVK Ozone Enzo 3 LAA SR | AXIS PARAGLIDING 13:20:00 15:47:02 02:27:02 28.4 74.63 362.2 174.1 342.6 879
78 123 Daria Krasnova F RUS Up Meru UP Paragliders 13:20:00 15:46:48 02:26:48 28.4 74.63 362.2 170.6 344.3 877
78 156 Luis Linde M ESP Ozone Enzo 2 Niviuk - Skywalk España - Draco - ALS Sport 13:20:00 15:47:13 02:27:13 28.3 74.63 362.2 173.2 341.3 877
80 35 Tomas Podmanik M SVK Ozone Zeno obec Veľké Kršteňany, LAA SR, REVIS 13:20:00 15:47:06 02:27:06 28.3 74.63 362.2 171.6 342.2 876
81 1117 Silvia Buzzi Ferraris F ITA Ozone Enzo 3 Pandol-Fly ; VerticalAttitude ; AeCI 13:20:00 15:47:28 02:27:28 28.3 74.63 362.2 173.7 339.5 875
82 205 Ari Sahlstrom M FIN Gin Boomerang 11 Vauhtifarmi Oy 13:20:00 15:49:27 02:29:27 27.9 74.63 362.2 183.0 326.1 871
83 26 Julian Robinson M GBR Gin Boomerang 11 UK Airsports 13:20:00 15:50:15 02:30:15 27.8 74.63 362.2 179.7 320.9 863
84 114 Daniel Tyrkas M GER Ozone Enzo 3 DHV 13:20:00 15:49:21 02:29:21 27.9 74.63 362.2 172.7 326.7 862
85 119 Stanislav Klikar M CZE Ozone Enzo 2 Axispara.cz, LaaCR, pgkb.cz 13:20:00 15:51:08 02:31:08 27.6 74.63 362.2 183.0 315.4 861
86 201 Johanna Hamne F SWE Ozone Zeno Odd Molly 13:20:00 15:47:39 02:27:39 28.2 74.63 362.2 158.4 338.2 859
87 8 Ernesto Hinestroza M GER Ozone Enzo3 DGFW, DHV, Kontest, talkyoo 13:20:00 15:51:22 02:31:22 27.5 74.63 362.2 178.5 314.0 855
88 62 Petra Slivova F CZE Gin Boomerang 11 GIN GLIDERS, LAA CR 13:20:00 15:47:32 02:27:32 28.3 74.63 362.2 151.8 339.1 853
88 375 Srdjan Ristanovic M SRB Ozone Enzo 3 VS Srbije, Xperience360 13:20:00 15:50:16 02:30:16 27.7 74.63 362.2 169.5 320.8 853
90 404 Antun Lovrec M CRO Ozone Zeno 13:20:00 15:51:30 02:31:30 27.5 74.63 362.2 174.9 313.2 850
90 708 Klaudia Bulgakow F POL Ozone EnZo 3 S Lukoil 13:20:00 15:45:09 02:25:09 28.7 74.63 362.2 130.8 357.0 850
90 1771 Nils-Aake Carlsson M SWE Ozone Enzo 3 FlyItParagliding.com 13:20:00 15:51:39 02:31:39 27.5 74.63 362.2 175.5 312.3 850
93 1171 Hakan Lindqvist M SWE Ozone Zeno skysport.se 13:20:00 15:47:07 02:27:07 28.3 74.63 362.2 145.1 342.0 849
93 212 Etienne Coupez M LUX Ozone Enzo 3 13:20:00 15:50:47 02:30:47 27.7 74.63 362.2 169.4 317.6 849
95 77 Jan Jares M CZE Up Meru/XR7 eHAMnet UP-czech, Flyskin, LAAcr 13:20:00 15:50:24 02:30:24 27.7 74.63 362.2 165.1 320.0 847
96 174 Aleksandar Santrac M BIH Ozone Enzo 3 13:20:00 15:52:17 02:32:17 27.4 74.63 362.2 172.4 308.5 843
97 56 FELIX Rodriguez Fernández M ESP Ozone Enzo 3 OZONE-NACEX-CERTIKA-AIR SPORTS CHAMONIX-JULBO 13:20:00 15:51:03 02:31:03 27.6 74.63 362.2 156.6 315.9 835
98 1119 Mari-Anne Aanes F NOR Ozone Zeno 13:20:00 15:52:23 02:32:23 27.4 74.63 362.2 155.7 307.9 826
99 504 Tadej Krevh M SLO Ozone Enzo3 Naviter.com, High Adventure 13:20:00 15:55:09 02:35:09 26.9 74.63 362.2 170.9 292.0 825
99 340 Nanda Walliser F SUI Up Meru UP Paragliders & High-Adventure 13:20:00 15:52:10 02:32:10 27.4 74.63 362.2 154.0 309.2 825
101 181 Sami Pitkakoski M FIN Ozone Zeno 13:20:00 15:54:17 02:34:17 27.0 74.63 362.2 163.7 296.9 823
102 33 Balan Antoniu Cristian M ROU Ozone Zeno www.AirSports.ro 13:20:00 15:48:36 02:28:36 28.1 74.63 362.2 126.5 331.7 820
103 46 Kalle Ojamo M FIN Ozone Zeno Greenled.fi 13:20:00 15:53:55 02:33:55 27.1 74.63 362.2 158.0 299.0 819
104 815 Katalin Juhasz F HUN Ozone Zeno fAirPlay, lortech, ASE 13:20:00 15:56:59 02:36:59 26.6 74.63 362.2 169.7 282.1 814
105 66 Jessica Cox F GBR Ozone Zeno Fly Sussex Paragliding 13:20:00 15:55:25 02:35:25 26.8 74.63 362.2 156.3 290.6 809
106 1611 Ricardo Rodrigues M POR Ozone Zeno paragliding.BSTOKED.net; Azores Airlines; BGD 13:20:00 15:51:48 02:31:48 27.5 74.63 362.2 132.2 311.4 806
107 997 Pawel Faron M POL Ozone Zeno Fadróg,Connect,Red Bull,Konstrukcje Żywiec, Salewa, flylite.pl 13:20:00 16:00:04 02:40:04 26.0 74.63 362.2 171.8 266.1 800
107 377 Elisabeth Egger F AUT Ozone Zeno S Egger BEST-Box BetriebsgmbH 13:20:00 15:58:32 02:38:32 26.3 74.63 362.2 164.2 273.9 800
109 71 Francis De Bruyn M BEL Ozone Enzo 3 13:20:00 16:02:26 02:42:26 25.7 74.63 362.2 168.9 254.4 786
110 103 Peter Nägele M GER Ozone Enzo 3 DHV, DCH, yellow cross 13:20:00 16:04:11 02:44:11 25.4 74.63 362.2 175.3 246.1 784
111 262 Ewa Korneluk-Guzy F GER Ozone Zeno paraclinic.at, Sziols 13:20:00 15:54:16 02:34:16 27.0 74.63 362.2 121.8 297.0 781
112 117 Pierre Therer M BEL Ozone Enzo 2 AirDeck 13:20:00 15:54:38 02:34:38 27.0 74.63 362.2 120.9 294.9 778
113 539 Antanas Jakucevicius M LTU Ozone Zeno Nemanta 13:20:00 15:54:56 02:34:56 26.9 74.63 362.2 115.2 293.2 771
114 244 Thibault Voglet M BEL Ozone Enzo 2 Fou d´l, Profondeville, Les 7 Meuses 13:20:00 16:05:42 02:45:42 25.2 74.63 362.2 159.5 239.0 761
115 6 Yvonne Dathe F GER UP Meru WinMental.de, FlyTeam 13:20:00 16:04:47 02:44:47 25.3 74.63 362.2 147.4 243.2 753
116 173 Birkan Paçali M TUR Ozone Zeno THK 13:20:00 16:02:36 02:42:36 25.6 74.63 362.2 136.4 253.6 752
117 191 Mirvad Zenuni M BIH Ozone Zeno Muscle Freak 13:20:00 16:03:10 02:43:10 25.6 74.63 362.2 114.7 250.9 728
118 707 Remko Bolt M NED Ozone Zeno http://www.winchline.nl/ 13:20:00 16:24:30 03:04:30 22.6 74.63 362.2 161.3 160.2 684
119 78 Eemeli Aittokallio M FIN Ozone Zeno 13:20:00 16:24:01 03:04:01 22.7 74.63 362.2 141.4 162.1 666
120 317 Srdjan Kesic M SRB Ozone Zeno VS Srbije, AK Novi Sad 13:20:00 16:18:42 02:58:42 23.3 74.63 362.2 120.1 183.1 665
121 224 Malin Lobb M GBR Ozone Enzo 3 FLYEO 13:20:00 15:54:44 02:34:44 26.9 74.42 361.2 170.6 532
122 98 Simon Arnold M AUT Ozone Enzo 3 flywear 13:20:00 69.78 338.7 186.6 525
123 871 Paulo Silva M POR Gin Boomerang 11 Azores Airlines 13:20:00 16:12:17 02:52:17 24.2 74.36 360.9 162.6 524
124 266 Peter Budai M HUN Ozone Zeno 13:20:00 69.77 338.6 171.1 510
125 29 Romana Schubertova F SVK UP Trango XC3 UP Slovakia 13:20:00 16:45:20 03:25:20 20.3 74.63 362.2 34.2 85.4 482
126 49 Silvia de Oliveira Ventura F POR NOVA Triton 2 Light XS NOVA, WIND 13:20:00 16:59:47 03:39:47 19.0 74.63 362.2 31.8 38.2 432
127 81 Florin Iftinca M ROU Swing Nexus 13:20:00 16:56:32 03:36:32 19.3 74.63 362.2 15.9 48.6 427
128 2 Tudor Dorobantu M ROU Niviuk Klimber P Tellur 13:20:00 17:01:28 03:41:28 18.8 74.63 362.2 22.8 32.9 418
129 1011 Lara Leban F SLO NOVA Sector Naviter, Adrenalin paragliding team, Triple seven 13:20:00 17:03:05 03:43:05 18.7 74.63 362.2 19.9 27.9 410
130 25 Jaroslav Janduch M SVK Ozone Enzo 2 Laa.sk Premat,s.r.o. 13:20:00 44.96 218.2 73.3 292
131 50 Pierre Remy M FRA Ozone Enzo3 Cg hautes Pyrénées, midi pyrénées, VLB 13:20:00 37.60 182.5 19.1 202
132 9 Razvan Nitoiu M ROU Ozone Delta 3 retrofit.ro 13:20:00 40.92 198.6 199
133 313 Quentin Debras M BEL BGD Diva Tilman SA - BGD - LaRoch'Ailes - Willame Motors - Kia Belux Atom 13:20:00 40.60 197.0 197
133 48 Tor Jansson M SWE Ozone Zeno velodrom.se skysport.se 13:20:00 37.86 183.7 13.1 197
135 32 Evgeny Kalashnik M UKR Gin Boom 11 Kalashnik 13:20:00 37.71 183.0 12.0 195
136 542 Stanislav Vojtek M SVK Ozone Zeno Funcars,belmar,čau sa bau 13:20:00 37.64 182.7 10.3 193
137 401 Rasa Grigoraitiene F LTU Ozone Zeno 13:20:00 37.91 184.0 3.4 187
137 21 Dana Kelemen F ROU Ozone Alpina 2 13:20:00 38.22 185.5 1.7 187
139 261 Konstiantyn Matusevych M UKR Ozone Zeno "Antonov" company, Nearbirds 13:20:00 37.64 182.7 183
140 235 John Herman Sorheim M NOR Ozone Enzo 3 Kystdesign 13:20:00 35.08 170.3 170
141 1000 Bogdan Bialka M IRL Ozone Enzo 3 SkyMaster 13:20:00 29.99 145.5 146
142 333 Predrag Neskovic M SRB Ozone Zeno VS Srbije, Pegaz Ivanjica 13:20:00 29.65 143.9 144
143 121 Gyula Fichtinger M HUN Ozone Zeno Ozone Hungary 13:20:00 29.42 142.8 143
144 15 Daniel Pop M ROU BGD Diva BGD 13:20:00 28.29 137.3 137
145 27 Zoran Boskovic M CRO Niviuk Icepeak 6 Moa 13:20:00 25.08 121.7 122
146 399 Dominika Kasieczko F POL Ozone Zeno Ozone Polska, GRAVITACJA 13:20:00 5.00 24.3 24
146 1177 Antoni Buljan M CRO Ozone Zeno Absolute adventure 13:20:00 5.00 24.3 24
146 19 Kimmo Korhonen M FIN Gin Boomerang 11 Redheat Oy, Levytyö Särkinen Oy 13:20:00 5.00 24.3 24
146 41 Eusebio Soares M POR Ozone Enzo 3 Soares & Soares 13:20:00 5.00 24.3 24
150 28 Marek Janosik M SVK UP Meru UP Slovakia DNF 0.0 0

Notes

Id Name Note
28 Marek Janosik Lesionou-se joelho na descolagem

Pilots absent from task (ABS)

Id Name

Pilots not yet processed (NYP)

Id Name

Task statistics

param value
ss_distance 69.492
task_distance 74.63
launch_to_ess_distance 71.134
no_of_pilots_present 150
no_of_pilots_flying 149
no_of_pilots_lo 24
no_of_pilots_reaching_nom_dist 129
no_of_pilots_reaching_es 127
no_of_pilots_reaching_goal 125
sum_flown_distance 10202.258
best_dist 74.63
best_time 2.34
worst_time 3.71805555555556
no_of_pilots_in_competition 150
no_of_pilots_landed_before_stop 0
sum_dist_over_min 9460.75700000001
sum_real_dist_over_min 9460.75700000001
sum_flown_distances 10202.258
best_real_dist 74.63
last_start_time 2018-07-24T13:20:00+01:00
first_start_time 2018-07-24T13:20:00+01:00
first_finish_time 2018-07-24T15:40:24+01:00
max_time_to_get_time_points 3.86970585407784
no_of_pilots_with_time_points 125
goalratio 0.838926174496644
arrival_weight 0
departure_weight 0
leading_weight 0.223227291669249
time_weight 0.414564970242891
distance_weight 0.362207738087861
smallest_leading_coefficient 1.56856857633015
available_points_distance 362.207738087861
available_points_time 414.564970242891
available_points_departure 0
available_points_leading 223.227291669249
available_points_arrival 0
time_validity 1
launch_validity 1
distance_validity 1
stop_validity 1
day_quality 1
ftv_day_validity 1
time_points_stop_correction 0

Scoring formula settings

param value
id GAP2018
min_dist 5
nom_dist 60
nom_time 1.5
nom_launch 0.96
nom_goal 0.3
day_quality_override 0
bonus_gr 4
jump_the_gun_factor 0
jump_the_gun_max 0
normalize_1000_before_day_quality 0
time_points_if_not_in_goal 0
use_1000_points_for_max_day_quality 0
use_arrival_position_points 0
use_arrival_time_points 0
use_departure_points 0
use_difficulty_for_distance_points 0
use_distance_points 1
use_distance_squared_for_LC 1
use_leading_points 1
use_semi_circle_control_zone_for_goal_line 1
use_time_points 1
scoring_altitude QNH
final_glide_decelerator none
no_final_glide_decelerator_reason
min_time_span_for_valid_task 60
score_back_time 5
use_proportional_leading_weight_if_nobody_in_goal 1
leading_weight_factor 2
turnpoint_radius_tolerance 0.002
Report created: 2018-07-24T17:33:59+01:00

FS development, maintenance and support by